Plaia De Esteiro — EAUV — position and weather

sailwx.info

Track history (hours):
 
Tides and Currents Weather Stations Pressure Air Temp Water Temp Dewpoint Dewpoint Depression Visibility Wind Speed Wind Dir Waves Ship Positions

Plaia De Esteiro

Last reported at 2017-Sep-27 02:51 UTC. Time now 2017-Oct-17 12:58 UTC.
Position N 43°44' W 005°30'.
Warning: this ship's position is 20 days out of date.

Length 30 m.

Type: Ship. MMSI: 224050990.

Date/timePositionNaut miles runAvg speedWind from/ knotsBaromVisibWave heightAir tempDewpointWater temp
2017-Sep-27 02:51N 43°44' W 005°30'7410.3
2017-Sep-26 19:39N 43°32' W 003°48'210.4
2017-Sep-26 19:28N 43°31' W 003°46'4 7.1
2017-Sep-26 18:56N 43°27' W 003°48'1 0.4
2017-Sep-26 16:58N 43°27' W 003°49'7 9.7
2017-Sep-26 16:15N 43°30' W 003°41'310.3
2017-Sep-26 15:57N 43°31' W 003°37'510.6
2017-Sep-26 15:30N 43°32' W 003°31'510.7
2017-Sep-26 15:00N 43°32' W 003°23'2 3.6
2017-Sep-26 14:30N 43°32' W 003°21'2 3.8
2017-Sep-26 14:00N 43°33' W 003°23'1 2.7
2017-Sep-26 13:31N 43°33' W 003°25'2 3.8
2017-Sep-26 13:00N 43°33' W 003°23'2 3.5
2017-Sep-26 12:30N 43°34' W 003°20'2 3.8
2017-Sep-26 12:00N 43°34' W 003°18'2 3.4
2017-Sep-26 11:30N 43°35' W 003°16'1 2.1
2017-Sep-26 11:00N 43°35' W 003°18'1 2.3
2017-Sep-26 10:30N 43°36' W 003°17'1 2.7
2017-Sep-26 09:57N 43°37' W 003°16'1 1.0
2017-Sep-26 09:07N 43°37' W 003°16'0 2.9
2017-Sep-26 09:00N 43°36' W 003°16'2 3.7
2017-Sep-26 08:30N 43°34' W 003°16'1 2.0
2017-Sep-26 08:00N 43°34' W 003°15'1 2.6
2017-Sep-26 07:26N 43°34' W 003°13'2 4.0
2017-Sep-26 07:00N 43°34' W 003°11'2 4.0
2017-Sep-26 06:30N 43°34' W 003°08'2 3.8
2017-Sep-26 06:00N 43°34' W 003°06'1 1.7
2017-Sep-26 05:31N 43°35' W 003°07'1 1.2
2017-Sep-26 05:00N 43°35' W 003°06'2 3.0
2017-Sep-26 04:12N 43°36' W 003°03'1 2.8
2017-Sep-26 04:00N 43°36' W 003°02'2 1.2
2017-Sep-26 02:31N 43°36' W 003°05'0 2.8
2017-Sep-26 02:23N 43°36' W 003°05'2 4.0
2017-Sep-26 02:00N 43°35' W 003°07'1 2.8
2017-Sep-26 01:30N 43°35' W 003°05'2 2.9
2017-Sep-26 00:52N 43°35' W 003°03'2 3.3
2017-Sep-26 00:15N 43°35' W 002°60'1 2.5
2017-Sep-26 00:00N 43°36' W 002°60'3 2.0
2017-Sep-25 22:26N 43°36' W 003°04'1 3.0
2017-Sep-25 22:00N 43°36' W 003°06'0 0.5
2017-Sep-25 21:30N 43°35' W 003°06'2 2.9
2017-Sep-25 20:59N 43°36' W 003°03'2 3.6
2017-Sep-25 20:20N 43°36' W 003°00'5 3.1
2017-Sep-25 18:37N 43°35' W 003°07'1 8.2
2017-Sep-25 18:30N 43°36' W 003°09'1 2.4
2017-Sep-25 18:01N 43°36' W 003°10'1 1.1
2017-Sep-25 17:30N 43°36' W 003°11'2 3.3
2017-Sep-25 17:00N 43°38' W 003°12'1 2.2
2017-Sep-25 16:28N 43°37' W 003°11'2 2.7
2017-Sep-25 15:51N 43°36' W 003°12'1 3.1
2017-Sep-25 15:30N 43°35' W 003°13'2 3.8
2017-Sep-25 15:01N 43°34' W 003°15'0 0.8
2017-Sep-25 14:30N 43°34' W 003°15'2 3.7
2017-Sep-25 14:00N 43°35' W 003°13'2 3.6
2017-Sep-25 13:30N 43°35' W 003°10'2 3.6
2017-Sep-25 13:00N 43°34' W 003°08'2 3.7
2017-Sep-25 12:30N 43°35' W 003°06'3 3.7
2017-Sep-25 11:44N 43°36' W 003°02'1 3.7
2017-Sep-25 11:24N 43°36' W 003°00'0 0.7
2017-Sep-25 11:00N 43°36' W 002°60'2 1.8
2017-Sep-25 10:01N 43°36' W 003°03'0 3.1
2017-Sep-25 09:52N 43°36' W 003°03'1 3.2
2017-Sep-25 09:26N 43°35' W 003°05'1 3.1
2017-Sep-25 09:00N 43°34' W 003°06'2 3.2
2017-Sep-25 08:30N 43°34' W 003°08'1 3.0
2017-Sep-25 08:01N 43°35' W 003°10'1 2.9
2017-Sep-25 07:30N 43°35' W 003°12'1 1.1
2017-Sep-25 06:55N 43°35' W 003°13'1 3.0
2017-Sep-25 06:30N 43°35' W 003°11'0 0.6
2017-Sep-25 06:00N 43°35' W 003°11'2 3.1
2017-Sep-25 05:30N 43°35' W 003°13'2 3.4
2017-Sep-25 05:00N 43°34' W 003°15'4 6.9
2017-Sep-25 04:29N 43°34' W 003°20'  
2017-Sep-22 01:56N 43°36' W 002°60'4 2.7
2017-Sep-22 00:20N 43°36' W 003°06'1 3.1
2017-Sep-22 00:00N 43°35' W 003°07'4 3.0
2017-Sep-21 22:43N 43°36' W 003°02'1 4.5
2017-Sep-21 22:28N 43°36' W 002°60'4 2.9
2017-Sep-21 21:01N 43°35' W 003°06'0 4.9
2017-Sep-21 20:59N 43°35' W 003°06'3 5.8
2017-Sep-21 20:30N 43°34' W 003°10'0 0.9
2017-Sep-21 20:00N 43°35' W 003°10'2 3.1
2017-Sep-21 19:30N 43°35' W 003°12'2 3.2
2017-Sep-21 19:00N 43°34' W 003°14'2 3.1
2017-Sep-21 18:30N 43°34' W 003°16'2 0.0
2017-Sep-19 16:24N 43°33' W 003°19'1 3.1
2017-Sep-19 16:00N 43°33' W 003°18'4 1.3
2017-Sep-19 12:42N 43°35' W 003°12'1 3.1
2017-Sep-19 12:30N 43°35' W 003°11'2 3.6
2017-Sep-19 12:00N 43°36' W 003°09'2 4.6
2017-Sep-19 11:30N 43°34' W 003°07'1 2.0
2017-Sep-19 10:59N 43°34' W 003°08'2 3.2
2017-Sep-19 10:30N 43°34' W 003°10'2 3.1
2017-Sep-19 10:00N 43°34' W 003°12'2 3.4
2017-Sep-19 09:31N 43°34' W 003°15'1 1.8
2017-Sep-19 09:01N 43°35' W 003°14'2 2.9
2017-Sep-19 08:26N 43°35' W 003°12'2 3.7
2017-Sep-19 08:00N 43°36' W 003°10'2 3.2
2017-Sep-19 07:30N 43°35' W 003°12'2 3.5
2017-Sep-19 07:01N 43°34' W 003°14'2 3.2
2017-Sep-19 06:30N 43°35' W 003°12'2 3.6
2017-Sep-19 06:00N 43°35' W 003°09'1 2.2
2017-Sep-19 05:30N 43°34' W 003°08'1 1.6
2017-Sep-19 05:00N 43°35' W 003°07'2 3.1
2017-Sep-19 04:30N 43°35' W 003°05'2 3.2
2017-Sep-19 03:59N 43°36' W 003°03'2 3.2
2017-Sep-19 03:28N 43°35' W 003°00'2 3.3
2017-Sep-19 02:59N 43°35' W 002°58'0 0.9
2017-Sep-19 02:27N 43°35' W 002°58'1 1.3
2017-Sep-19 01:59N 43°35' W 002°59'1 3.0
2017-Sep-19 01:30N 43°36' W 003°01'1 3.0
2017-Sep-19 01:00N 43°36' W 003°03'2 3.1
2017-Sep-19 00:30N 43°35' W 003°05'1 2.3
2017-Sep-18 23:59N 43°35' W 003°06'1 3.1
2017-Sep-18 23:30N 43°35' W 003°04'2 3.1
2017-Sep-18 22:57N 43°35' W 003°02'1 3.0
2017-Sep-18 22:30N 43°35' W 003°00'2 3.6
2017-Sep-18 21:57N 43°35' W 002°57'16 9.3
2017-Sep-18 20:17N 43°35' W 002°36'  
Track history (hours):
 
Tides and Currents Weather Stations Pressure Air Temp Water Temp Dewpoint Dewpoint Depression Visibility Wind Speed Wind Dir Waves Ship Positions

Plaia De Esteiro

Last reported at 2017-Sep-27 02:51 UTC. Time now 2017-Oct-17 12:58 UTC.
Position N 43°44' W 005°30'.
Warning: this ship's position is 20 days out of date.

Length 30 m.

Type: Ship. MMSI: 224050990.

Date/timePositionNaut miles runAvg speedWind from/ knotsBaromVisibWave heightAir tempDewpointWater temp
2017-Sep-27 02:51N 43°44' W 005°30'7410.3
2017-Sep-26 19:39N 43°32' W 003°48'210.4
2017-Sep-26 19:28N 43°31' W 003°46'4 7.1
2017-Sep-26 18:56N 43°27' W 003°48'1 0.4
2017-Sep-26 16:58N 43°27' W 003°49'7 9.7
2017-Sep-26 16:15N 43°30' W 003°41'310.3
2017-Sep-26 15:57N 43°31' W 003°37'510.6
2017-Sep-26 15:30N 43°32' W 003°31'510.7
2017-Sep-26 15:00N 43°32' W 003°23'2 3.6
2017-Sep-26 14:30N 43°32' W 003°21'2 3.8
2017-Sep-26 14:00N 43°33' W 003°23'1 2.7
2017-Sep-26 13:31N 43°33' W 003°25'2 3.8
2017-Sep-26 13:00N 43°33' W 003°23'2 3.5
2017-Sep-26 12:30N 43°34' W 003°20'2 3.8
2017-Sep-26 12:00N 43°34' W 003°18'2 3.4
2017-Sep-26 11:30N 43°35' W 003°16'1 2.1
2017-Sep-26 11:00N 43°35' W 003°18'1 2.3
2017-Sep-26 10:30N 43°36' W 003°17'1 2.7
2017-Sep-26 09:57N 43°37' W 003°16'1 1.0
2017-Sep-26 09:07N 43°37' W 003°16'0 2.9
2017-Sep-26 09:00N 43°36' W 003°16'2 3.7
2017-Sep-26 08:30N 43°34' W 003°16'1 2.0
2017-Sep-26 08:00N 43°34' W 003°15'1 2.6
2017-Sep-26 07:26N 43°34' W 003°13'2 4.0
2017-Sep-26 07:00N 43°34' W 003°11'2 4.0
2017-Sep-26 06:30N 43°34' W 003°08'2 3.8
2017-Sep-26 06:00N 43°34' W 003°06'1 1.7
2017-Sep-26 05:31N 43°35' W 003°07'1 1.2
2017-Sep-26 05:00N 43°35' W 003°06'2 3.0
2017-Sep-26 04:12N 43°36' W 003°03'1 2.8
2017-Sep-26 04:00N 43°36' W 003°02'2 1.2
2017-Sep-26 02:31N 43°36' W 003°05'0 2.8
2017-Sep-26 02:23N 43°36' W 003°05'2 4.0
2017-Sep-26 02:00N 43°35' W 003°07'1 2.8
2017-Sep-26 01:30N 43°35' W 003°05'2 2.9
2017-Sep-26 00:52N 43°35' W 003°03'2 3.3
2017-Sep-26 00:15N 43°35' W 002°60'1 2.5
2017-Sep-26 00:00N 43°36' W 002°60'3 2.0
2017-Sep-25 22:26N 43°36' W 003°04'1 3.0
2017-Sep-25 22:00N 43°36' W 003°06'0 0.5
2017-Sep-25 21:30N 43°35' W 003°06'2 2.9
2017-Sep-25 20:59N 43°36' W 003°03'2 3.6
2017-Sep-25 20:20N 43°36' W 003°00'5 3.1
2017-Sep-25 18:37N 43°35' W 003°07'1 8.2
2017-Sep-25 18:30N 43°36' W 003°09'1 2.4
2017-Sep-25 18:01N 43°36' W 003°10'1 1.1
2017-Sep-25 17:30N 43°36' W 003°11'2 3.3
2017-Sep-25 17:00N 43°38' W 003°12'1 2.2
2017-Sep-25 16:28N 43°37' W 003°11'2 2.7
2017-Sep-25 15:51N 43°36' W 003°12'1 3.1
2017-Sep-25 15:30N 43°35' W 003°13'2 3.8
2017-Sep-25 15:01N 43°34' W 003°15'0 0.8
2017-Sep-25 14:30N 43°34' W 003°15'2 3.7
2017-Sep-25 14:00N 43°35' W 003°13'2 3.6
2017-Sep-25 13:30N 43°35' W 003°10'2 3.6
2017-Sep-25 13:00N 43°34' W 003°08'2 3.7
2017-Sep-25 12:30N 43°35' W 003°06'3 3.7
2017-Sep-25 11:44N 43°36' W 003°02'1 3.7
2017-Sep-25 11:24N 43°36' W 003°00'0 0.7
2017-Sep-25 11:00N 43°36' W 002°60'2 1.8
2017-Sep-25 10:01N 43°36' W 003°03'0 3.1
2017-Sep-25 09:52N 43°36' W 003°03'1 3.2
2017-Sep-25 09:26N 43°35' W 003°05'1 3.1
2017-Sep-25 09:00N 43°34' W 003°06'2 3.2
2017-Sep-25 08:30N 43°34' W 003°08'1 3.0
2017-Sep-25 08:01N 43°35' W 003°10'1 2.9
2017-Sep-25 07:30N 43°35' W 003°12'1 1.1
2017-Sep-25 06:55N 43°35' W 003°13'1 3.0
2017-Sep-25 06:30N 43°35' W 003°11'0 0.6
2017-Sep-25 06:00N 43°35' W 003°11'2 3.1
2017-Sep-25 05:30N 43°35' W 003°13'2 3.4
2017-Sep-25 05:00N 43°34' W 003°15'4 6.9
2017-Sep-25 04:29N 43°34' W 003°20'  
2017-Sep-22 01:56N 43°36' W 002°60'4 2.7
2017-Sep-22 00:20N 43°36' W 003°06'1 3.1
2017-Sep-22 00:00N 43°35' W 003°07'4 3.0
2017-Sep-21 22:43N 43°36' W 003°02'1 4.5
2017-Sep-21 22:28N 43°36' W 002°60'4 2.9
2017-Sep-21 21:01N 43°35' W 003°06'0 4.9
2017-Sep-21 20:59N 43°35' W 003°06'3 5.8
2017-Sep-21 20:30N 43°34' W 003°10'0 0.9
2017-Sep-21 20:00N 43°35' W 003°10'2 3.1
2017-Sep-21 19:30N 43°35' W 003°12'2 3.2
2017-Sep-21 19:00N 43°34' W 003°14'2 3.1
2017-Sep-21 18:30N 43°34' W 003°16'2 0.0
2017-Sep-19 16:24N 43°33' W 003°19'1 3.1
2017-Sep-19 16:00N 43°33' W 003°18'4 1.3
2017-Sep-19 12:42N 43°35' W 003°12'1 3.1
2017-Sep-19 12:30N 43°35' W 003°11'2 3.6
2017-Sep-19 12:00N 43°36' W 003°09'2 4.6
2017-Sep-19 11:30N 43°34' W 003°07'1 2.0
2017-Sep-19 10:59N 43°34' W 003°08'2 3.2
2017-Sep-19 10:30N 43°34' W 003°10'2 3.1
2017-Sep-19 10:00N 43°34' W 003°12'2 3.4
2017-Sep-19 09:31N 43°34' W 003°15'1 1.8
2017-Sep-19 09:01N 43°35' W 003°14'2 2.9
2017-Sep-19 08:26N 43°35' W 003°12'2 3.7
2017-Sep-19 08:00N 43°36' W 003°10'2 3.2
2017-Sep-19 07:30N 43°35' W 003°12'2 3.5
2017-Sep-19 07:01N 43°34' W 003°14'2 3.2
2017-Sep-19 06:30N 43°35' W 003°12'2 3.6
2017-Sep-19 06:00N 43°35' W 003°09'1 2.2
2017-Sep-19 05:30N 43°34' W 003°08'1 1.6
2017-Sep-19 05:00N 43°35' W 003°07'2 3.1
2017-Sep-19 04:30N 43°35' W 003°05'2 3.2
2017-Sep-19 03:59N 43°36' W 003°03'2 3.2
2017-Sep-19 03:28N 43°35' W 003°00'2 3.3
2017-Sep-19 02:59N 43°35' W 002°58'0 0.9
2017-Sep-19 02:27N 43°35' W 002°58'1 1.3
2017-Sep-19 01:59N 43°35' W 002°59'1 3.0
2017-Sep-19 01:30N 43°36' W 003°01'1 3.0
2017-Sep-19 01:00N 43°36' W 003°03'2 3.1
2017-Sep-19 00:30N 43°35' W 003°05'1 2.3
2017-Sep-18 23:59N 43°35' W 003°06'1 3.1
2017-Sep-18 23:30N 43°35' W 003°04'2 3.1
2017-Sep-18 22:57N 43°35' W 003°02'1 3.0
2017-Sep-18 22:30N 43°35' W 003°00'2 3.6
2017-Sep-18 21:57N 43°35' W 002°57'16 9.3
2017-Sep-18 20:17N 43°35' W 002°36'  

Dump ship's entire track history